createdAt,value
2023-02-22T02:15:51.574Z,18.75
2023-02-22T02:18:21.416Z,18.55
2023-02-22T02:21:09.847Z,18.10
2023-02-22T02:24:17.222Z,18.63
2023-02-22T02:27:25.993Z,19.40
2023-02-22T02:30:34.717Z,19.33
2023-02-22T02:33:31.527Z,18.42
2023-02-22T02:36:26.555Z,18.60
2023-02-22T02:39:27.564Z,19.00
2023-02-22T02:41:59.611Z,18.17
2023-02-22T02:44:41.470Z,18.48
2023-02-22T02:47:19.680Z,17.15
2023-02-22T02:50:28.531Z,17.98
2023-02-22T02:53:01.701Z,17.27
2023-02-22T02:55:33.726Z,17.30
2023-02-22T02:58:03.346Z,16.55
2023-02-22T03:00:40.960Z,16.40
2023-02-22T03:03:46.660Z,16.52
2023-02-22T03:06:55.450Z,16.13
2023-02-22T03:10:04.148Z,17.13
2023-02-22T03:12:47.444Z,15.35
2023-02-22T03:15:41.688Z,16.70
2023-02-22T03:18:31.673Z,16.58
2023-02-22T03:21:25.946Z,16.23
2023-02-22T03:24:20.742Z,16.13
2023-02-22T03:27:13.767Z,16.13
2023-02-22T03:29:47.548Z,16.10
2023-02-22T03:32:24.371Z,15.95
2023-02-22T03:35:12.892Z,14.10
2023-02-22T03:37:47.173Z,15.05
2023-02-22T03:40:28.110Z,16.20
2023-02-22T03:43:08.810Z,16.40
2023-02-22T03:45:40.532Z,15.63
2023-02-22T03:48:29.540Z,14.20
2023-02-22T03:51:00.319Z,15.52
2023-02-22T03:53:32.200Z,14.23
2023-02-22T03:56:03.478Z,15.35
2023-02-22T03:58:36.622Z,14.68
2023-02-22T04:01:06.661Z,15.43
2023-02-22T04:03:36.393Z,15.57
2023-02-22T04:06:06.144Z,14.73
2023-02-22T04:08:35.804Z,15.60
2023-02-22T04:11:05.587Z,15.85
2023-02-22T04:13:35.207Z,15.18
2023-02-22T04:16:05.047Z,15.10
2023-02-22T04:18:35.847Z,14.98
2023-02-22T04:21:06.254Z,14.85
2023-02-22T04:23:35.902Z,15.55
2023-02-22T04:26:05.628Z,17.13
2023-02-22T04:28:35.238Z,15.63
2023-02-22T04:31:04.867Z,15.57
2023-02-22T04:33:34.679Z,15.20
2023-02-22T04:36:04.484Z,13.52
2023-02-22T04:38:34.147Z,15.15
2023-02-22T04:41:03.905Z,14.82
2023-02-22T04:43:33.569Z,14.70
2023-02-22T04:46:03.147Z,15.02
2023-02-22T04:48:33.120Z,15.25
2023-02-22T04:51:02.775Z,14.68
2023-02-22T04:53:32.466Z,14.20
2023-02-22T04:56:02.402Z,14.40
2023-02-22T04:58:33.380Z,13.77
2023-02-22T05:01:03.449Z,14.60
2023-02-22T05:03:33.476Z,12.77
2023-02-22T05:06:03.229Z,14.23
2023-02-22T05:08:32.938Z,12.70
2023-02-22T05:11:02.620Z,13.57
2023-02-22T05:13:32.217Z,13.75
2023-02-22T05:16:01.880Z,13.95
2023-02-22T05:18:31.560Z,13.90
2023-02-22T05:21:01.828Z,13.20
2023-02-22T05:23:31.617Z,13.85
2023-02-22T05:26:01.816Z,13.60
2023-02-22T05:28:31.464Z,13.52
2023-02-22T05:31:01.293Z,13.70
2023-02-22T05:33:30.888Z,13.02
2023-02-22T05:36:00.490Z,14.55
2023-02-22T05:38:30.380Z,13.70
2023-02-22T05:40:59.942Z,13.50
2023-02-22T05:43:29.599Z,13.63
2023-02-22T05:45:59.389Z,13.63
2023-02-22T05:48:28.960Z,14.00
2023-02-22T05:50:59.235Z,12.30
2023-02-22T05:53:29.490Z,13.38
2023-02-22T05:55:59.206Z,14.00
2023-02-22T05:58:28.975Z,13.52
2023-02-22T06:00:58.776Z,12.52
2023-02-22T06:03:28.440Z,13.30
2023-02-22T06:05:58.127Z,12.48
2023-02-22T06:08:27.793Z,12.90
2023-02-22T06:10:57.539Z,11.85
2023-02-22T06:13:27.150Z,13.65
2023-02-22T06:15:57.009Z,12.10
2023-02-22T06:18:28.368Z,12.77
2023-02-22T06:20:58.059Z,11.85
2023-02-22T06:23:29.686Z,13.05
2023-02-22T06:25:59.405Z,13.43
2023-02-22T06:28:29.253Z,12.10
2023-02-22T06:30:59.108Z,12.15
2023-02-22T06:33:28.767Z,13.23
2023-02-22T06:35:58.455Z,12.10
2023-02-22T06:38:29.414Z,13.38
2023-02-22T06:40:59.053Z,13.30
2023-02-22T06:43:28.746Z,13.80
2023-02-22T06:45:58.505Z,12.02
2023-02-22T06:48:28.218Z,12.88
2023-02-22T06:50:57.866Z,12.68
2023-02-22T06:53:27.523Z,11.65
2023-02-22T06:55:57.429Z,12.88
2023-02-22T06:58:27.077Z,13.02
2023-02-22T07:00:56.823Z,13.02
2023-02-22T07:03:26.666Z,13.35
2023-02-22T07:05:57.093Z,13.52
2023-02-22T07:08:26.763Z,13.35
2023-02-22T07:10:56.810Z,12.57
2023-02-22T07:13:26.424Z,13.00
2023-02-22T07:15:56.259Z,13.15
2023-02-22T07:18:25.952Z,12.15
2023-02-22T07:20:56.026Z,12.18
2023-02-22T07:23:25.897Z,12.10
2023-02-22T07:25:56.644Z,12.50
2023-02-22T07:28:26.298Z,12.77
2023-02-22T07:30:55.955Z,13.35
2023-02-22T07:33:25.758Z,13.10
2023-02-22T07:35:55.368Z,12.05
2023-02-22T07:38:24.944Z,11.75
2023-02-22T07:40:54.606Z,12.43
2023-02-22T07:43:27.327Z,11.73
2023-02-22T07:45:58.624Z,12.25
2023-02-22T07:48:30.427Z,12.40
2023-02-22T07:51:00.746Z,13.02
2023-02-22T07:53:33.408Z,12.63
2023-02-22T07:56:06.859Z,11.70
2023-02-22T07:58:37.078Z,12.95
2023-02-22T08:01:07.674Z,11.88
2023-02-22T08:03:39.554Z,12.60
2023-02-22T08:06:10.334Z,12.27
2023-02-22T08:08:40.062Z,11.50
2023-02-22T08:11:09.799Z,11.88
2023-02-22T08:13:40.638Z,12.75
2023-02-22T08:16:10.878Z,12.88
2023-02-22T08:18:42.657Z,11.82
2023-02-22T08:21:12.317Z,11.93
2023-02-22T08:23:41.982Z,11.88
2023-02-22T08:26:17.248Z,11.73
2023-02-22T08:28:46.985Z,12.40
2023-02-22T08:31:16.911Z,11.38
2023-02-22T08:33:50.863Z,11.73
2023-02-22T08:36:20.567Z,11.40
2023-02-22T08:38:50.420Z,11.60
2023-02-22T08:41:20.117Z,11.90
2023-02-22T08:43:49.757Z,11.25
2023-02-22T08:46:20.432Z,12.15
2023-02-22T08:48:54.336Z,11.95
2023-02-22T08:51:24.895Z,11.98
2023-02-22T08:53:55.210Z,11.77
2023-02-22T08:56:25.028Z,11.10
2023-02-22T08:58:54.675Z,11.77
2023-02-22T09:01:33.010Z,11.57
2023-02-22T09:04:03.948Z,11.40
2023-02-22T09:06:33.681Z,11.95
2023-02-22T09:09:03.848Z,11.65
2023-02-22T09:11:33.536Z,11.77
2023-02-22T09:14:03.252Z,11.20
2023-02-22T09:16:33.789Z,10.20
2023-02-22T09:19:03.492Z,11.15
2023-02-22T09:21:33.337Z,11.30
2023-02-22T09:24:09.957Z,12.13
2023-02-22T09:26:41.888Z,11.45
2023-02-22T09:29:12.223Z,10.85
2023-02-22T09:31:43.623Z,11.88
2023-02-22T09:34:17.057Z,11.50
2023-02-22T09:36:48.277Z,11.95
2023-02-22T09:39:19.608Z,11.77
2023-02-22T09:42:29.328Z,12.30
2023-02-22T09:45:29.661Z,12.82
2023-02-22T09:48:20.729Z,12.18
2023-02-22T09:50:54.854Z,12.40
2023-02-22T09:53:43.432Z,12.88
2023-02-22T09:56:16.653Z,13.18
2023-02-22T09:58:49.419Z,12.18
2023-02-22T10:01:45.071Z,11.00
2023-02-22T10:04:44.894Z,10.80
2023-02-22T10:07:30.254Z,10.93
2023-02-22T10:10:07.897Z,11.10
2023-02-22T10:13:15.695Z,11.05
2023-02-22T10:16:01.750Z,11.38
2023-02-22T10:19:12.427Z,11.57
2023-02-22T10:22:06.733Z,11.00
2023-02-22T10:24:58.186Z,11.32
2023-02-22T10:27:39.098Z,11.23
2023-02-22T10:30:25.314Z,12.50
2023-02-22T10:33:07.453Z,16.33
2023-02-22T10:35:42.658Z,14.02
2023-02-22T10:38:26.080Z,13.43
2023-02-22T10:41:25.971Z,13.70
2023-02-22T10:43:55.701Z,12.93
2023-02-22T10:46:25.872Z,12.35
2023-02-22T10:49:01.924Z,12.48
2023-02-22T10:51:32.285Z,12.05
2023-02-22T10:54:28.673Z,14.05
2023-02-22T10:57:00.025Z,14.45
2023-02-22T10:59:49.244Z,14.63
2023-02-22T11:02:33.751Z,14.77
2023-02-22T11:05:06.392Z,13.27
2023-02-22T11:07:39.831Z,13.68
2023-02-22T11:10:11.170Z,13.18
2023-02-22T11:12:44.055Z,14.05
2023-02-22T11:15:33.343Z,14.27
2023-02-22T11:18:03.657Z,14.38
2023-02-22T11:20:42.984Z,13.77
2023-02-22T11:23:14.070Z,14.38
2023-02-22T11:25:45.273Z,13.85
2023-02-22T11:28:34.628Z,13.23
2023-02-22T11:31:19.212Z,14.70
2023-02-22T11:34:03.735Z,14.88
2023-02-22T11:36:43.991Z,14.65
2023-02-22T11:39:37.266Z,14.13
2023-02-22T11:42:30.339Z,14.20
2023-02-22T11:45:23.236Z,14.63
2023-02-22T11:48:06.631Z,15.70
2023-02-22T11:50:55.420Z,15.55
2023-02-22T11:53:51.707Z,15.32
2023-02-22T11:56:38.397Z,14.82
2023-02-22T11:59:47.302Z,14.73
2023-02-22T12:02:56.698Z,15.75
2023-02-22T12:06:01.252Z,15.75
2023-02-22T12:08:55.304Z,16.42
2023-02-22T12:11:59.058Z,16.33
2023-02-22T12:14:56.862Z,16.42
2023-02-22T12:18:00.175Z,15.93
2023-02-22T12:20:58.678Z,15.23
2023-02-22T12:23:52.329Z,17.25
2023-02-22T12:26:42.898Z,17.00
2023-02-22T12:29:43.678Z,16.67
2023-02-22T12:32:39.879Z,18.83
2023-02-22T12:35:30.169Z,15.88
2023-02-22T12:38:14.007Z,17.88
2023-02-22T12:41:07.874Z,17.83
2023-02-22T12:43:46.576Z,19.08
2023-02-22T12:46:45.711Z,18.25
2023-02-22T12:49:48.775Z,17.75
2023-02-22T12:52:44.229Z,18.67
2023-02-22T12:55:27.036Z,19.90
2023-02-22T12:58:26.928Z,19.13
2023-02-22T13:01:21.667Z,17.30
2023-02-22T13:03:51.648Z,18.45
2023-02-22T13:06:44.318Z,25.13
2023-02-22T13:09:53.133Z,26.10
2023-02-22T13:12:52.348Z,23.88
2023-02-22T13:15:34.982Z,23.33
2023-02-22T13:18:33.914Z,23.85
2023-02-22T13:21:25.095Z,24.08
2023-02-22T13:24:24.832Z,24.38
2023-02-22T13:27:06.294Z,21.95
2023-02-22T13:29:42.125Z,23.60
2023-02-22T13:32:37.862Z,24.75
2023-02-22T13:35:37.155Z,25.88
2023-02-22T13:38:45.919Z,23.38
2023-02-22T13:41:43.182Z,23.60
2023-02-22T13:44:48.194Z,24.42
2023-02-22T13:47:56.925Z,24.77
2023-02-22T13:51:06.482Z,27.15
2023-02-22T13:54:02.150Z,26.02
2023-02-22T13:56:32.106Z,24.60
2023-02-22T13:59:05.377Z,26.95
2023-02-22T14:01:47.472Z,30.98
2023-02-22T14:04:39.854Z,29.38
2023-02-22T14:07:48.945Z,30.15
2023-02-22T14:10:40.744Z,26.80
2023-02-22T14:13:11.053Z,29.15
2023-02-22T14:16:18.738Z,32.47
2023-02-22T14:18:52.600Z,32.00
2023-02-22T14:21:24.574Z,29.77
2023-02-22T14:23:57.569Z,28.65
2023-02-22T14:26:43.287Z,30.23
2023-02-22T14:29:20.641Z,29.45
2023-02-22T14:32:09.226Z,28.80
2023-02-22T14:34:51.144Z,26.45
2023-02-22T14:37:41.275Z,27.30
2023-02-22T14:40:32.956Z,27.52
2023-02-22T14:43:21.668Z,27.67
2023-02-22T14:46:06.957Z,29.17
2023-02-22T14:48:44.393Z,27.73
2023-02-22T14:51:27.099Z,30.33
2023-02-22T14:54:29.218Z,27.63
2023-02-22T14:57:29.512Z,29.05
2023-02-22T15:00:24.454Z,30.08
2023-02-22T15:02:58.894Z,30.23
2023-02-22T15:05:32.844Z,31.05
2023-02-22T15:08:07.380Z,30.40
2023-02-22T15:10:46.663Z,29.67
2023-02-22T15:13:25.389Z,28.92
2023-02-22T15:16:01.858Z,28.88
2023-02-22T15:18:47.868Z,27.27
2023-02-22T15:21:21.297Z,27.30
2023-02-22T15:24:02.691Z,28.48
2023-02-22T15:26:59.007Z,25.92
2023-02-22T15:32:19.866Z,29.17
2023-02-22T15:34:49.572Z,28.20
2023-02-22T15:37:26.855Z,27.38
2023-02-22T15:40:07.198Z,29.77
2023-02-22T15:42:50.313Z,30.88
2023-02-22T15:45:26.875Z,32.00
2023-02-22T15:47:57.998Z,31.85
2023-02-22T15:50:31.196Z,33.25
2023-02-22T15:53:07.036Z,31.95
2023-02-22T15:55:42.669Z,32.92
2023-02-22T15:58:25.572Z,31.38
2023-02-22T16:01:16.015Z,30.95
2023-02-22T16:03:49.444Z,33.05
2023-02-22T16:06:40.131Z,32.03
2023-02-22T16:09:27.069Z,32.22
2023-02-22T16:12:27.070Z,32.85
2023-02-22T16:14:57.511Z,33.03
2023-02-22T16:17:42.684Z,33.55
2023-02-22T16:20:34.786Z,30.20
2023-02-22T16:23:25.635Z,31.60
2023-02-22T16:26:20.830Z,31.80
2023-02-22T16:29:10.523Z,30.55
2023-02-22T16:31:41.957Z,31.70
2023-02-22T16:34:12.650Z,31.08
2023-02-22T16:36:49.128Z,31.35
2023-02-22T16:39:31.640Z,33.70
2023-02-22T16:42:04.661Z,31.48
2023-02-22T16:44:36.239Z,32.80
2023-02-22T16:47:06.012Z,34.40
2023-02-22T16:49:35.676Z,33.03
2023-02-22T16:52:09.271Z,32.78
2023-02-22T16:54:47.776Z,34.78
2023-02-22T16:57:24.531Z,33.67
2023-02-22T16:59:55.286Z,33.47
2023-02-22T17:02:24.999Z,33.47
2023-02-22T17:04:54.789Z,33.53
2023-02-22T17:07:32.574Z,32.47
2023-02-22T17:10:02.339Z,33.00
2023-02-22T17:12:33.808Z,31.77
2023-02-22T17:15:05.227Z,31.92
2023-02-22T17:17:34.893Z,32.90
2023-02-22T17:20:09.974Z,33.90
2023-02-22T17:22:39.578Z,33.38
2023-02-22T17:25:22.608Z,32.80
2023-02-22T17:27:52.188Z,32.85
2023-02-22T17:30:24.022Z,32.92
2023-02-22T17:32:54.907Z,32.25
2023-02-22T17:35:28.714Z,32.15
2023-02-22T17:37:58.865Z,32.95
2023-02-22T17:40:28.976Z,32.40
2023-02-22T17:42:59.430Z,36.10
2023-02-22T17:45:29.534Z,33.30
2023-02-22T17:48:01.150Z,33.53
2023-02-22T17:50:33.418Z,34.58
2023-02-22T17:53:03.037Z,32.85
2023-02-22T17:55:33.003Z,32.60
2023-02-22T17:58:03.121Z,34.45
2023-02-22T18:00:36.183Z,31.88
2023-02-22T18:03:10.455Z,34.67
2023-02-22T18:05:47.839Z,32.88
2023-02-22T18:08:17.988Z,33.80
2023-02-22T18:10:49.089Z,33.38
2023-02-22T18:13:20.386Z,32.53
2023-02-22T18:15:50.369Z,33.55
2023-02-22T18:18:21.089Z,32.97
2023-02-22T18:20:53.118Z,34.63
2023-02-22T18:23:24.686Z,32.75
2023-02-22T18:26:09.645Z,32.08
2023-02-22T18:28:41.085Z,32.47
2023-02-22T18:31:16.395Z,32.63
2023-02-22T18:33:53.038Z,33.97
2023-02-22T18:36:24.290Z,32.03
2023-02-22T18:38:55.673Z,33.75
2023-02-22T18:41:26.834Z,34.20
2023-02-22T18:43:59.158Z,35.42
2023-02-22T18:46:31.463Z,35.28
2023-02-22T18:49:01.212Z,34.85
2023-02-22T18:51:30.975Z,32.20
2023-02-22T18:54:03.926Z,31.80
2023-02-22T18:56:35.582Z,33.17
2023-02-22T18:59:06.340Z,34.63
2023-02-22T19:01:42.557Z,37.00
2023-02-22T19:04:14.206Z,34.75
2023-02-22T19:06:46.496Z,35.33
2023-02-22T19:09:16.238Z,36.10
2023-02-22T19:11:50.005Z,34.35
2023-02-22T19:14:21.144Z,33.92
2023-02-22T19:16:54.407Z,34.33
2023-02-22T19:19:26.475Z,36.55
2023-02-22T19:21:58.013Z,36.47
2023-02-22T19:24:27.647Z,35.80
2023-02-22T19:27:01.520Z,32.97
2023-02-22T19:29:32.864Z,35.08
2023-02-22T19:32:02.546Z,35.75
2023-02-22T19:34:33.079Z,34.42
2023-02-22T19:37:03.465Z,35.25
2023-02-22T19:39:34.879Z,35.50
2023-02-22T19:42:06.534Z,35.70
2023-02-22T19:44:37.612Z,35.63
2023-02-22T19:47:11.759Z,37.13
2023-02-22T19:49:42.791Z,34.95
2023-02-22T19:52:12.444Z,37.15
2023-02-22T19:54:42.065Z,38.03
2023-02-22T19:57:11.793Z,37.42
2023-02-22T19:59:41.939Z,36.67
2023-02-22T20:02:13.539Z,39.88
2023-02-22T20:04:43.429Z,42.38
2023-02-22T20:07:13.005Z,44.92
2023-02-22T20:09:42.685Z,46.03
2023-02-22T20:12:12.259Z,45.58
2023-02-22T20:14:42.038Z,46.97
2023-02-22T20:17:11.991Z,43.95
2023-02-22T20:19:42.294Z,43.50
2023-02-22T20:22:12.472Z,42.17
2023-02-22T20:24:43.509Z,42.47
2023-02-22T20:27:14.594Z,46.45
2023-02-22T20:29:44.547Z,49.72
2023-02-22T20:32:16.994Z,46.05
2023-02-22T20:34:50.306Z,46.92
2023-02-22T20:37:20.696Z,47.28
2023-02-22T20:39:52.131Z,46.95
2023-02-22T20:42:22.267Z,45.78
2023-02-22T20:44:56.505Z,44.55
2023-02-22T20:47:26.065Z,47.97
2023-02-22T20:49:55.689Z,49.42
2023-02-22T20:52:25.466Z,49.22
2023-02-22T20:54:55.100Z,55.35
2023-02-22T20:57:24.794Z,56.28
2023-02-22T20:59:54.478Z,53.38
2023-02-22T21:04:44.566Z,55.17
2023-02-22T21:07:14.365Z,55.58
2023-02-22T21:09:44.089Z,57.15
2023-02-22T21:12:15.249Z,57.95
